Time;durP1;ratioP1;P1;durP2;ratioP2;P2;SDS_P1;SDS_P2;PMS_P1;PMS_P2;Temp;Humidity;BMP_temperature;BMP_pressure;BME280_temperature;BME280_humidity;BME280_pressure;Samples;Min_cycle;Max_cycle;Signal;HPM_P1;HPM_P2
2021/01/15 00:01:07;;;;;;;5.47;3.53;;;2.60;51.50;;;;;;5037059;28;20396;-69
2021/01/15 00:03:34;;;;;;;6.82;4.55;;;2.70;50.50;;;;;;5036792;28;20295;-68
2021/01/15 00:06:05;;;;;;;8.07;4.65;;;2.70;50.90;;;;;;5037012;28;20416;-69
2021/01/15 00:08:37;;;;;;;7.00;4.55;;;2.70;51.80;;;;;;5037057;28;20326;-69
2021/01/15 00:11:03;;;;;;;6.35;3.72;;;2.70;51.90;;;;;;5036982;28;20064;-69
2021/01/15 00:13:29;;;;;;;6.78;3.95;;;2.70;51.80;;;;;;5036650;28;20091;-68
2021/01/15 00:15:55;;;;;;;5.78;3.67;;;2.60;51.40;;;;;;5036575;28;20029;-69
2021/01/15 00:18:21;;;;;;;7.18;3.53;;;2.60;52.50;;;;;;5036666;28;20088;-69
2021/01/15 00:20:46;;;;;;;5.68;3.50;;;2.60;52.00;;;;;;5036832;28;20397;-69
2021/01/15 00:23:12;;;;;;;7.72;4.43;;;2.50;52.40;;;;;;5036861;28;20398;-69
2021/01/15 00:25:38;;;;;;;7.10;4.03;;;2.50;53.30;;;;;;5036526;28;20072;-69
2021/01/15 00:28:05;;;;;;;8.13;3.95;;;2.40;55.60;;;;;;5036597;28;20033;-69
2021/01/15 00:30:31;;;;;;;7.10;4.35;;;2.30;56.20;;;;;;5036530;28;20357;-69
2021/01/15 00:32:56;;;;;;;6.75;3.88;;;2.20;55.50;;;;;;5037773;28;20032;-68
2021/01/15 00:35:22;;;;;;;6.18;4.22;;;2.20;57.20;;;;;;5040558;28;20026;-68
2021/01/15 00:37:49;;;;;;;6.60;3.88;;;2.10;58.30;;;;;;5040675;28;20025;-68
2021/01/15 00:40:15;;;;;;;6.78;4.15;;;2.00;58.60;;;;;;5040676;28;20044;-69
2021/01/15 00:42:41;;;;;;;6.75;4.20;;;1.90;58.80;;;;;;5041219;28;20421;-69
2021/01/15 00:45:07;;;;;;;11.48;4.38;;;1.90;59.30;;;;;;5040560;28;20030;-69
2021/01/15 00:47:32;;;;;;;6.40;4.32;;;1.90;59.40;;;;;;5040522;28;20029;-69
2021/01/15 00:49:59;;;;;;;6.88;4.22;;;1.90;57.70;;;;;;5040248;28;20067;-69
2021/01/15 00:52:24;;;;;;;5.25;3.63;;;1.90;57.00;;;;;;5040430;28;20029;-69
2021/01/15 00:54:50;;;;;;;6.03;3.20;;;2.00;58.00;;;;;;5040165;28;20425;-69
2021/01/15 00:57:15;;;;;;;4.30;3.00;;;2.00;57.00;;;;;;5040176;28;20108;-69
2021/01/15 00:59:41;;;;;;;4.95;3.20;;;2.00;58.80;;;;;;5040129;28;20056;-69
2021/01/15 01:02:07;;;;;;;7.47;2.72;;;1.90;58.70;;;;;;5040092;28;20473;-69
2021/01/15 01:04:33;;;;;;;3.78;2.35;;;1.90;59.20;;;;;;5038900;28;20052;-68
2021/01/15 01:07:00;;;;;;;3.42;2.30;;;1.90;56.30;;;;;;5040564;28;20034;-69
2021/01/15 01:09:25;;;;;;;5.90;2.63;;;2.00;55.50;;;;;;5040242;28;20033;-69
2021/01/15 01:11:51;;;;;;;5.10;2.22;;;2.10;56.60;;;;;;5040014;28;20325;-69
2021/01/15 01:14:18;;;;;;;4.45;2.58;;;2.10;57.30;;;;;;5039689;28;20100;-69
2021/01/15 01:16:44;;;;;;;3.15;2.33;;;2.10;56.10;;;;;;5039838;28;20022;-68
2021/01/15 01:19:10;;;;;;;4.22;2.22;;;2.20;56.60;;;;;;5039750;28;20053;-68
2021/01/15 01:21:35;;;;;;;8.98;2.55;;;2.20;56.50;;;;;;5039891;28;20370;-69
2021/01/15 01:24:01;;;;;;;6.32;2.35;;;2.20;54.70;;;;;;5039603;28;20108;-69
2021/01/15 01:26:27;;;;;;;4.25;2.05;;;2.20;55.30;;;;;;5039091;28;20128;-69
2021/01/15 01:28:52;;;;;;;4.03;2.13;;;2.20;55.30;;;;;;5038666;28;20021;-68
2021/01/15 01:31:18;;;;;;;3.63;1.75;;;2.30;56.20;;;;;;5037540;28;20413;-68
2021/01/15 01:33:45;;;;;;;3.40;1.65;;;2.30;56.80;;;;;;5038283;28;20025;-68
2021/01/15 01:36:11;;;;;;;2.95;1.50;;;2.30;55.90;;;;;;5038222;28;20152;-69
2021/01/15 01:38:38;;;;;;;4.85;1.98;;;2.30;55.70;;;;;;5038252;28;20022;-68
2021/01/15 01:41:04;;;;;;;4.50;1.73;;;2.40;56.00;;;;;;5038489;28;20052;-69
2021/01/15 01:43:30;;;;;;;5.45;1.75;;;2.30;56.60;;;;;;5037722;28;20026;-68
2021/01/15 01:45:58;;;;;;;2.58;1.58;;;2.30;56.80;;;;;;5038350;28;20040;-69
2021/01/15 01:48:24;;;;;;;2.20;1.20;;;2.30;57.00;;;;;;5037071;28;20025;-68
2021/01/15 01:50:52;;;;;;;2.65;1.25;;;2.30;57.90;;;;;;5038246;28;20034;-68
2021/01/15 01:53:20;;;;;;;3.08;1.40;;;2.30;58.40;;;;;;5037981;28;20030;-69
2021/01/15 01:55:47;;;;;;;3.45;1.63;;;2.30;56.90;;;;;;5038227;28;20037;-69
2021/01/15 01:58:15;;;;;;;3.55;1.60;;;2.30;56.80;;;;;;5037962;28;20026;-68
2021/01/15 02:00:44;;;;;;;6.63;1.60;;;2.30;57.10;;;;;;5036839;28;20035;-69
2021/01/15 02:03:15;;;;;;;4.05;1.92;;;2.20;59.00;;;;;;5037903;28;20456;-68
2021/01/15 02:05:40;;;;;;;3.55;2.20;;;2.20;60.10;;;;;;5037768;28;20025;-68
2021/01/15 02:08:06;;;;;;;4.65;2.03;;;2.20;60.40;;;;;;5037788;28;20463;-69
2021/01/15 02:10:40;;;;;;;5.00;1.70;;;2.10;61.10;;;;;;5037746;28;20036;-68
2021/01/15 02:13:32;;;;;;;3.67;1.67;;;2.10;60.90;;;;;;5037866;28;20032;-68
2021/01/15 02:16:08;;;;;;;2.63;1.42;;;2.10;61.60;;;;;;5037411;28;20083;-69
2021/01/15 02:18:54;;;;;;;5.55;1.73;;;2.00;61.50;;;;;;5037972;28;20083;-68
2021/01/15 02:21:31;;;;;;;9.27;1.83;;;2.00;62.40;;;;;;5037636;28;20043;-68
2021/01/15 02:24:12;;;;;;;2.33;1.38;;;2.00;62.40;;;;;;5037499;28;20025;-69
2021/01/15 02:27:19;;;;;;;5.97;2.70;;;1.90;63.30;;;;;;5015482;28;640138;-69
2021/01/15 02:30:20;;;;;;;2.95;1.60;;;1.90;64.10;;;;;;5038199;28;20041;-69
2021/01/15 02:33:14;;;;;;;3.15;1.60;;;1.80;61.10;;;;;;5036835;28;20045;-69
2021/01/15 02:36:12;;;;;;;5.85;1.70;;;1.80;62.00;;;;;;5037628;28;20049;-68
2021/01/15 02:38:47;;;;;;;4.25;1.90;;;1.80;62.90;;;;;;5038470;28;20026;-69
2021/01/15 02:41:21;;;;;;;4.03;1.70;;;1.80;62.00;;;;;;5038105;28;20052;-69
2021/01/15 02:43:52;;;;;;;4.07;1.65;;;1.80;62.80;;;;;;5038384;28;20040;-69
2021/01/15 02:46:25;;;;;;;3.03;1.67;;;1.70;62.50;;;;;;5038411;28;20072;-69
2021/01/15 02:48:53;;;;;;;2.47;1.42;;;1.70;63.50;;;;;;5038150;28;20030;-69
2021/01/15 02:51:19;;;;;;;3.95;1.40;;;1.70;63.60;;;;;;5038080;28;20025;-68
2021/01/15 02:53:46;;;;;;;4.25;1.40;;;1.60;63.70;;;;;;5038107;28;20029;-68
2021/01/15 02:56:13;;;;;;;3.20;1.60;;;1.60;63.50;;;;;;5037469;28;20394;-69
2021/01/15 02:58:40;;;;;;;3.55;2.10;;;1.50;63.20;;;;;;5038147;28;20317;-69
2021/01/15 03:01:05;;;;;;;5.32;2.03;;;1.40;63.30;;;;;;5037906;28;20471;-68
2021/01/15 03:03:42;;;;;;;3.45;1.92;;;1.40;63.60;;;;;;5037822;28;20025;-69
2021/01/15 03:06:22;;;;;;;3.25;1.95;;;1.30;63.80;;;;;;5037975;28;20099;-69
2021/01/15 03:08:48;;;;;;;3.75;1.77;;;1.30;63.70;;;;;;5037860;28;20087;-69
2021/01/15 03:11:15;;;;;;;3.50;1.65;;;1.30;62.00;;;;;;5037913;28;20064;-68
2021/01/15 03:13:42;;;;;;;3.33;1.50;;;1.40;61.10;;;;;;5037828;28;20059;-68
2021/01/15 03:16:09;;;;;;;2.55;1.45;;;1.50;60.90;;;;;;5037642;28;20369;-68
2021/01/15 03:18:36;;;;;;;3.60;2.00;;;1.60;61.70;;;;;;5036492;28;20025;-68
2021/01/15 03:21:02;;;;;;;4.28;2.00;;;1.60;61.60;;;;;;5037531;28;20318;-68
2021/01/15 03:23:28;;;;;;;5.53;1.85;;;1.70;60.40;;;;;;5037442;28;20135;-69
2021/01/15 03:25:55;;;;;;;4.22;1.73;;;1.80;61.40;;;;;;5037436;28;20048;-69
2021/01/15 03:28:21;;;;;;;3.28;1.85;;;1.80;60.60;;;;;;5037653;28;20111;-68
2021/01/15 03:30:47;;;;;;;3.00;1.73;;;1.90;60.50;;;;;;5037335;28;20025;-68
2021/01/15 03:33:12;;;;;;;3.08;1.90;;;1.90;60.00;;;;;;5037264;28;20049;-69
2021/01/15 03:35:38;;;;;;;5.15;1.90;;;1.90;59.00;;;;;;5037089;28;20342;-69
2021/01/15 03:38:05;;;;;;;3.50;1.42;;;1.90;59.50;;;;;;5037224;28;20421;-69
2021/01/15 03:40:45;;;;;;;2.85;1.58;;;1.90;59.40;;;;;;5037065;28;20032;-68
2021/01/15 03:43:21;;;;;;;4.50;1.67;;;2.00;60.90;;;;;;5037051;28;20026;-69
2021/01/15 03:45:48;;;;;;;3.30;1.45;;;1.90;59.70;;;;;;5037036;28;20017;-69
2021/01/15 03:48:15;;;;;;;2.25;1.38;;;1.90;56.80;;;;;;5037291;28;20167;-69
2021/01/15 03:50:42;;;;;;;3.45;1.65;;;1.90;56.30;;;;;;5036950;28;20071;-68
2021/01/15 03:53:08;;;;;;;3.13;1.60;;;1.80;54.90;;;;;;5036960;28;20025;-68
2021/01/15 03:55:34;;;;;;;2.53;1.30;;;1.80;56.10;;;;;;5037159;28;20047;-68
2021/01/15 03:58:00;;;;;;;3.55;1.40;;;1.80;58.70;;;;;;5036902;28;20083;-69
2021/01/15 04:00:26;;;;;;;2.75;1.23;;;1.80;58.10;;;;;;5037058;28;20045;-68
2021/01/15 04:02:52;;;;;;;2.53;1.27;;;1.80;58.90;;;;;;5035742;28;20032;-69
2021/01/15 04:05:17;;;;;;;2.40;1.40;;;1.80;59.40;;;;;;5036813;28;20026;-69
2021/01/15 04:07:44;;;;;;;1.90;1.17;;;1.80;57.70;;;;;;5036685;28;20022;-69
2021/01/15 04:10:12;;;;;;;2.53;1.10;;;1.70;57.20;;;;;;5036741;28;20327;-69
2021/01/15 04:12:38;;;;;;;2.03;1.17;;;1.70;57.70;;;;;;5036664;28;20030;-69
2021/01/15 04:15:09;;;;;;;3.03;1.48;;;1.70;59.10;;;;;;5036792;28;20021;-69
2021/01/15 04:17:36;;;;;;;2.17;1.35;;;1.70;59.30;;;;;;5036626;28;20092;-69
2021/01/15 04:20:04;;;;;;;3.00;1.17;;;1.70;59.20;;;;;;5036571;28;20325;-68
2021/01/15 04:22:36;;;;;;;1.70;1.00;;;1.60;58.70;;;;;;5036627;28;20365;-69
2021/01/15 04:25:03;;;;;;;5.60;1.20;;;1.60;60.30;;;;;;5036869;28;20029;-69
2021/01/15 04:27:33;;;;;;;2.65;1.13;;;1.50;60.60;;;;;;5036385;28;20068;-68
2021/01/15 04:30:01;;;;;;;2.65;1.40;;;1.40;58.70;;;;;;5036788;28;20108;-69
2021/01/15 04:32:27;;;;;;;4.10;1.20;;;1.30;59.10;;;;;;5036636;28;20432;-69
2021/01/15 04:34:54;;;;;;;2.58;1.10;;;1.30;60.00;;;;;;5036406;28;20021;-69
2021/01/15 04:37:19;;;;;;;2.38;1.48;;;1.30;61.40;;;;;;5036717;28;20026;-69
2021/01/15 04:39:45;;;;;;;1.60;1.13;;;1.30;60.30;;;;;;5036466;28;20109;-68
2021/01/15 04:42:14;;;;;;;2.28;1.10;;;1.30;61.40;;;;;;5036734;28;20037;-68
2021/01/15 04:44:40;;;;;;;4.50;1.30;;;1.30;60.20;;;;;;5036365;28;20324;-68
2021/01/15 04:47:09;;;;;;;2.03;0.90;;;1.30;60.30;;;;;;5036536;28;20068;-68
2021/01/15 04:49:36;;;;;;;2.92;1.35;;;1.30;58.20;;;;;;5036322;28;20075;-68
2021/01/15 04:52:03;;;;;;;1.98;1.15;;;1.30;59.30;;;;;;5036390;28;20065;-68
2021/01/15 04:54:38;;;;;;;2.08;1.15;;;1.30;61.40;;;;;;5036102;28;20025;-69
2021/01/15 04:57:08;;;;;;;2.58;1.40;;;1.30;62.80;;;;;;5036429;28;20357;-69
2021/01/15 04:59:42;;;;;;;3.10;1.48;;;1.30;64.40;;;;;;5036368;28;20029;-69
2021/01/15 05:02:09;;;;;;;5.30;1.20;;;1.20;61.50;;;;;;5036273;28;20462;-69
2021/01/15 05:04:37;;;;;;;4.65;1.50;;;1.10;58.80;;;;;;5036392;28;20068;-69
2021/01/15 05:07:04;;;;;;;3.40;1.73;;;1.20;59.10;;;;;;5036553;28;20022;-68
2021/01/15 05:09:45;;;;;;;2.90;1.27;;;1.10;59.50;;;;;;5036441;28;20025;-69
2021/01/15 05:12:17;;;;;;;6.15;1.50;;;1.10;61.20;;;;;;5036160;28;20033;-69
2021/01/15 05:14:49;;;;;;;2.97;1.48;;;1.00;59.00;;;;;;5034930;28;20105;-68
2021/01/15 05:17:16;;;;;;;5.50;1.77;;;0.90;59.10;;;;;;5036131;28;20036;-68
2021/01/15 05:19:43;;;;;;;2.45;1.15;;;0.80;59.00;;;;;;5038651;28;20147;-68
2021/01/15 05:22:10;;;;;;;3.90;1.73;;;0.80;58.80;;;;;;5038675;28;20456;-68
2021/01/15 05:24:37;;;;;;;2.15;1.20;;;0.90;59.10;;;;;;5039669;28;20029;-69
2021/01/15 05:30:17;;;;;;;6.03;1.65;;;0.90;62.10;;;;;;5039899;28;20119;-68
2021/01/15 05:32:44;;;;;;;2.53;1.58;;;0.90;58.70;;;;;;5039543;28;20108;-68
2021/01/15 05:35:10;;;;;;;4.53;1.70;;;1.00;58.60;;;;;;5039451;28;20037;-69
2021/01/15 05:37:36;;;;;;;4.28;1.80;;;1.00;58.60;;;;;;5039369;28;20041;-68
2021/01/15 05:40:04;;;;;;;4.53;2.42;;;1.10;58.70;;;;;;5039696;28;20029;-69
2021/01/15 05:42:30;;;;;;;4.72;2.30;;;1.10;59.50;;;;;;5038302;28;20025;-68
2021/01/15 05:45:16;;;;;;;9.38;2.60;;;1.10;60.30;;;;;;5039548;28;20439;-68
2021/01/15 05:47:43;;;;;;;4.13;2.60;;;1.10;60.80;;;;;;5039580;28;20160;-69
2021/01/15 05:50:10;;;;;;;8.60;3.50;;;1.10;62.00;;;;;;5039424;28;20055;-69
2021/01/15 05:52:37;;;;;;;6.32;3.08;;;1.00;63.80;;;;;;5039129;28;20029;-69
2021/01/15 05:55:12;;;;;;;6.03;2.47;;;0.90;63.50;;;;;;5039128;28;20061;-69
2021/01/15 05:57:40;;;;;;;3.30;2.30;;;0.80;64.00;;;;;;5039091;28;20032;-68
2021/01/15 06:00:06;;;;;;;4.55;2.42;;;0.80;63.70;;;;;;5039022;28;20026;-68
2021/01/15 06:02:32;;;;;;;6.07;3.90;;;0.60;64.10;;;;;;5038915;28;20033;-68
2021/01/15 06:04:58;;;;;;;8.02;3.65;;;0.60;65.10;;;;;;5038988;28;20022;-68
2021/01/15 06:07:27;;;;;;;5.28;3.22;;;0.60;65.90;;;;;;5038979;28;20030;-69
2021/01/15 06:10:01;;;;;;;8.35;3.60;;;0.60;65.00;;;;;;5038875;28;20108;-68
2021/01/15 06:12:39;;;;;;;7.80;2.80;;;0.50;66.50;;;;;;5038857;28;20317;-69
2021/01/15 06:15:06;;;;;;;4.50;2.22;;;0.30;66.70;;;;;;5038635;28;20048;-68
2021/01/15 06:17:38;;;;;;;4.15;2.50;;;0.10;66.00;;;;;;5038735;28;20024;-68
2021/01/15 06:20:05;;;;;;;6.03;2.92;;;0.10;66.00;;;;;;5038898;28;20104;-69
2021/01/15 06:22:37;;;;;;;10.57;2.55;;;0.20;66.20;;;;;;5037514;28;20029;-68
2021/01/15 06:25:23;;;;;;;5.43;2.58;;;0.10;64.60;;;;;;5038554;28;20033;-69
2021/01/15 06:27:56;;;;;;;6.28;3.00;;;0.10;66.10;;;;;;5038806;28;20045;-69
2021/01/15 06:30:25;;;;;;;4.53;2.80;;;0.10;67.10;;;;;;5037387;28;20362;-69
2021/01/15 06:32:52;;;;;;;6.95;4.78;;;0.00;69.20;;;;;;5038419;28;20029;-68
2021/01/15 06:35:30;;;;;;;6.53;3.22;;;0.00;69.60;;;;;;5038205;28;20032;-68
2021/01/15 06:37:58;;;;;;;6.40;3.15;;;0.00;69.50;;;;;;5038748;28;20021;-68
2021/01/15 06:40:39;;;;;;;4.05;2.47;;;0.00;70.30;;;;;;5038289;28;20029;-68
2021/01/15 06:43:13;;;;;;;2.83;1.83;;;-0.10;68.40;;;;;;5038282;28;20470;-68
2021/01/15 06:45:42;;;;;;;3.90;2.70;;;-0.10;64.50;;;;;;5038423;28;20373;-69
2021/01/15 06:48:17;;;;;;;5.13;2.45;;;0.00;68.40;;;;;;5037137;28;20080;-68
2021/01/15 06:50:46;;;;;;;4.90;2.10;;;0.00;68.40;;;;;;5038083;28;20032;-69
2021/01/15 06:53:18;;;;;;;3.65;2.10;;;0.00;68.20;;;;;;5038210;28;20061;-68
2021/01/15 06:55:45;;;;;;;4.80;2.60;;;0.00;68.00;;;;;;5038281;28;20029;-69
2021/01/15 06:58:17;;;;;;;3.85;2.45;;;0.00;68.50;;;;;;5037957;28;20414;-69
2021/01/15 07:01:09;;;;;;;5.75;2.80;;;0.00;69.60;;;;;;5037942;28;20030;-69
2021/01/15 07:03:37;;;;;;;4.30;2.65;;;0.00;70.40;;;;;;5037866;28;20021;-69
2021/01/15 07:06:04;;;;;;;4.88;3.25;;;0.00;70.50;;;;;;5037848;28;20086;-69
2021/01/15 07:08:31;;;;;;;4.22;3.08;;;0.00;71.30;;;;;;5037757;28;20473;-68
2021/01/15 07:10:59;;;;;;;4.78;3.35;;;0.00;72.10;;;;;;5037677;28;20059;-69
2021/01/15 07:13:28;;;;;;;5.68;3.72;;;0.00;72.10;;;;;;5037654;28;20036;-68
2021/01/15 07:15:55;;;;;;;7.13;4.35;;;0.00;72.00;;;;;;5037515;28;20327;-69
2021/01/15 07:18:34;;;;;;;5.72;3.10;;;0.00;72.00;;;;;;5037573;28;20024;-69
2021/01/15 07:21:08;;;;;;;5.15;3.50;;;0.00;69.50;;;;;;5037520;28;20025;-69
2021/01/15 07:23:50;;;;;;;5.30;2.60;;;0.00;70.20;;;;;;5037418;28;20162;-69
2021/01/15 07:26:17;;;;;;;4.70;2.83;;;0.10;69.80;;;;;;5037469;28;20349;-69
2021/01/15 07:28:45;;;;;;;3.90;2.70;;;0.10;68.30;;;;;;5037387;28;20029;-69
2021/01/15 07:31:22;;;;;;;2.80;1.80;;;0.20;67.80;;;;;;5036282;28;20029;-68
2021/01/15 07:33:52;;;;;;;4.70;2.03;;;0.20;67.00;;;;;;5037546;28;20413;-69
2021/01/15 07:36:38;;;;;;;3.00;1.58;;;0.30;66.10;;;;;;5037159;28;20021;-69
2021/01/15 07:39:12;;;;;;;2.85;1.58;;;0.40;65.90;;;;;;5037345;28;20103;-68
2021/01/15 07:41:41;;;;;;;1.77;1.00;;;0.40;64.20;;;;;;5036952;28;20026;-69
2021/01/15 07:44:23;;;;;;;2.00;1.25;;;0.60;65.40;;;;;;5037352;28;20080;-69
2021/01/15 07:46:54;;;;;;;2.58;1.30;;;0.70;64.80;;;;;;5037307;28;20082;-69
2021/01/15 07:49:22;;;;;;;2.47;1.35;;;0.80;67.00;;;;;;5037010;28;20018;-69
2021/01/15 07:52:07;;;;;;;2.22;1.30;;;0.90;66.70;;;;;;5037064;28;20025;-69
2021/01/15 07:54:57;;;;;;;3.30;1.40;;;1.00;66.10;;;;;;5036695;28;20018;-69
2021/01/15 07:57:24;;;;;;;3.08;1.20;;;1.10;64.10;;;;;;5036925;28;20057;-69
2021/01/15 07:59:49;;;;;;;2.35;1.20;;;1.20;63.50;;;;;;5036882;28;20100;-69
2021/01/15 08:02:17;;;;;;;2.97;1.80;;;1.20;63.30;;;;;;5036837;28;20402;-69
2021/01/15 08:04:42;;;;;;;3.72;1.83;;;1.30;63.30;;;;;;5036742;28;20021;-68
2021/01/15 08:07:17;;;;;;;2.65;1.85;;;1.30;60.90;;;;;;5037324;28;20425;-68
2021/01/15 08:09:43;;;;;;;3.63;1.75;;;1.40;60.00;;;;;;5036724;28;20029;-69
2021/01/15 08:12:09;;;;;;;3.47;1.95;;;1.50;61.60;;;;;;5036727;28;20452;-69
2021/01/15 08:14:36;;;;;;;3.97;2.25;;;1.60;61.90;;;;;;5036615;28;20033;-69
2021/01/15 08:17:10;;;;;;;3.13;2.03;;;1.70;61.20;;;;;;5036925;28;20361;-69
2021/01/15 08:19:38;;;;;;;4.00;2.08;;;1.80;60.70;;;;;;5036628;28;20033;-69
2021/01/15 08:22:07;;;;;;;4.07;2.08;;;1.90;61.30;;;;;;5035615;28;20116;-69
2021/01/15 08:24:44;;;;;;;3.67;1.77;;;2.00;60.60;;;;;;5036586;28;20030;-69
2021/01/15 08:27:18;;;;;;;3.90;2.28;;;2.10;58.90;;;;;;5036515;28;20049;-69
2021/01/15 08:29:45;;;;;;;5.60;2.10;;;2.10;61.80;;;;;;5036645;28;20030;-69
2021/01/15 08:32:11;;;;;;;3.03;1.80;;;2.10;61.50;;;;;;5036597;28;20440;-68
2021/01/15 08:34:38;;;;;;;3.83;2.17;;;2.30;59.70;;;;;;5036600;28;20025;-69
2021/01/15 08:37:06;;;;;;;3.72;2.33;;;2.30;58.00;;;;;;5036626;28;20029;-69
2021/01/15 08:39:54;;;;;;;4.65;2.60;;;2.50;58.70;;;;;;5036473;28;20100;-68
2021/01/15 08:42:20;;;;;;;5.18;2.70;;;2.50;57.40;;;;;;5036530;28;20022;-69
2021/01/15 08:44:51;;;;;;;4.20;2.50;;;2.60;58.50;;;;;;5036305;28;20104;-69
2021/01/15 08:47:20;;;;;;;5.30;2.88;;;2.70;58.70;;;;;;5036642;28;20036;-68
2021/01/15 08:49:56;;;;;;;7.43;3.03;;;2.80;59.30;;;;;;5036611;28;20334;-69
2021/01/15 08:52:24;;;;;;;6.95;3.00;;;2.90;60.00;;;;;;5036374;28;20060;-69
2021/01/15 08:54:52;;;;;;;5.10;3.05;;;2.90;59.60;;;;;;5039165;28;20370;-69
2021/01/15 08:57:28;;;;;;;5.20;2.67;;;2.90;58.90;;;;;;5040257;28;20029;-69
2021/01/15 08:59:54;;;;;;;4.97;2.88;;;2.90;58.30;;;;;;5040311;28;20349;-69
2021/01/15 09:02:22;;;;;;;4.03;2.58;;;2.90;57.60;;;;;;5040130;28;20109;-69
2021/01/15 09:04:48;;;;;;;4.47;2.50;;;2.80;57.50;;;;;;5040133;28;20105;-69
2021/01/15 09:07:15;;;;;;;3.50;2.08;;;2.80;56.10;;;;;;5040365;28;20112;-69
2021/01/15 09:09:42;;;;;;;6.65;2.50;;;2.80;55.50;;;;;;5040040;28;20033;-69
2021/01/15 09:12:09;;;;;;;3.42;2.40;;;2.80;56.30;;;;;;5039922;28;20029;-69
2021/01/15 09:14:36;;;;;;;4.35;2.83;;;2.70;54.50;;;;;;5039915;28;20026;-68
2021/01/15 09:17:11;;;;;;;4.28;2.50;;;2.70;55.60;;;;;;5040108;28;20022;-69
2021/01/15 09:19:36;;;;;;;3.22;2.25;;;2.60;56.20;;;;;;5039964;28;20036;-69
2021/01/15 09:22:07;;;;;;;4.50;2.45;;;2.70;55.90;;;;;;5039815;28;20317;-68
2021/01/15 09:24:35;;;;;;;3.88;2.50;;;2.70;54.80;;;;;;5039606;28;20037;-69
2021/01/15 09:27:03;;;;;;;4.30;2.67;;;2.80;54.20;;;;;;5039618;28;20430;-69
2021/01/15 09:29:30;;;;;;;4.22;2.35;;;3.10;54.40;;;;;;5039482;28;20021;-69
2021/01/15 09:31:56;;;;;;;4.05;2.38;;;3.20;53.80;;;;;;5039604;28;20349;-69
2021/01/15 09:34:24;;;;;;;5.78;2.75;;;3.20;53.90;;;;;;5039438;28;20021;-69
2021/01/15 09:36:52;;;;;;;4.97;2.45;;;3.30;55.90;;;;;;5039547;28;20125;-69
2021/01/15 09:39:21;;;;;;;4.30;2.53;;;3.50;54.20;;;;;;5039459;28;20026;-69
2021/01/15 09:41:52;;;;;;;3.22;2.20;;;3.60;54.70;;;;;;5039680;28;20056;-69
2021/01/15 09:44:20;;;;;;;3.70;2.45;;;3.80;52.10;;;;;;5039276;28;20025;-69
2021/01/15 09:46:48;;;;;;;3.97;2.58;;;3.80;52.60;;;;;;5039354;28;20029;-69
2021/01/15 09:49:14;;;;;;;4.43;2.58;;;3.90;52.50;;;;;;5039297;28;20377;-69
2021/01/15 09:51:40;;;;;;;4.28;2.85;;;4.00;52.50;;;;;;5039243;28;20037;-69
2021/01/15 09:54:06;;;;;;;5.13;2.97;;;4.00;52.20;;;;;;5039171;28;20322;-69
2021/01/15 09:56:33;;;;;;;4.03;2.60;;;3.90;51.60;;;;;;5039520;28;20037;-69
2021/01/15 09:59:01;;;;;;;3.95;2.25;;;3.80;52.60;;;;;;5039509;28;20022;-69
2021/01/15 10:01:27;;;;;;;2.78;2.00;;;3.80;51.40;;;;;;5039275;28;20033;-69
2021/01/15 10:03:55;;;;;;;4.65;2.50;;;3.70;51.10;;;;;;5038976;28;20029;-68
2021/01/15 10:06:21;;;;;;;6.80;4.88;;;3.70;53.00;;;;;;5038645;28;20029;-69
2021/01/15 10:08:47;;;;;;;8.32;5.40;;;3.60;55.20;;;;;;5037214;28;20025;-69
2021/01/15 10:11:21;;;;;;;5.68;3.72;;;3.80;55.70;;;;;;5047494;28;20025;-69
2021/01/15 10:13:47;;;;;;;6.57;3.65;;;3.90;53.60;;;;;;5058785;28;20523;-69
2021/01/15 10:16:12;;;;;;;4.18;3.00;;;3.90;52.30;;;;;;5058650;28;20029;-69
2021/01/15 10:18:39;;;;;;;5.03;2.97;;;4.10;52.00;;;;;;5058933;28;20111;-69
2021/01/15 10:21:06;;;;;;;4.38;2.78;;;4.40;50.40;;;;;;5058650;28;20021;-69
2021/01/15 10:23:35;;;;;;;4.53;2.90;;;4.90;49.20;;;;;;5058849;28;20108;-69
2021/01/15 10:26:01;;;;;;;4.93;2.65;;;5.10;48.40;;;;;;5058198;28;20117;-69
2021/01/15 10:28:27;;;;;;;4.25;2.80;;;5.30;48.80;;;;;;5059071;28;20119;-69
2021/01/15 10:30:53;;;;;;;4.82;3.17;;;5.70;47.80;;;;;;5058472;28;20032;-69
2021/01/15 10:33:21;;;;;;;8.00;3.00;;;6.30;46.90;;;;;;5058433;28;20076;-69
2021/01/15 10:35:48;;;;;;;9.20;3.78;;;6.50;47.10;;;;;;5058283;28;20025;-69
2021/01/15 10:38:13;;;;;;;6.65;3.67;;;6.40;46.40;;;;;;5058572;28;20021;-69
2021/01/15 10:40:39;;;;;;;7.35;5.28;;;6.20;47.10;;;;;;5058473;28;20025;-69
2021/01/15 10:43:05;;;;;;;5.80;3.55;;;6.20;47.90;;;;;;5058202;28;20025;-69
2021/01/15 10:45:30;;;;;;;7.00;4.15;;;6.70;48.20;;;;;;5058165;28;20077;-69
2021/01/15 10:47:56;;;;;;;5.18;3.60;;;7.00;45.70;;;;;;5058145;28;20025;-69
2021/01/15 10:50:21;;;;;;;5.93;3.67;;;7.40;45.20;;;;;;5058275;28;20033;-69
2021/01/15 10:52:55;;;;;;;6.78;3.85;;;7.90;44.40;;;;;;5058266;28;20408;-69
2021/01/15 10:55:20;;;;;;;6.40;3.85;;;8.50;45.80;;;;;;5058204;28;20037;-69
2021/01/15 10:57:47;;;;;;;5.60;3.97;;;8.90;43.30;;;;;;5057209;28;20036;-69
2021/01/15 11:00:14;;;;;;;5.30;4.07;;;9.30;42.10;;;;;;5056819;28;20037;-69
2021/01/15 11:02:39;;;;;;;6.22;4.65;;;9.50;43.00;;;;;;5058011;28;20360;-69
2021/01/15 11:05:08;;;;;;;8.32;4.80;;;9.70;41.10;;;;;;5057742;28;20037;-67
2021/01/15 11:07:34;;;;;;;7.60;5.25;;;9.70;41.40;;;;;;5057771;28;20021;-67
2021/01/15 11:10:00;;;;;;;6.63;4.80;;;9.70;41.90;;;;;;5057968;28;20040;-67
2021/01/15 11:12:26;;;;;;;9.80;5.38;;;9.70;42.70;;;;;;5057667;28;20078;-67
2021/01/15 11:14:51;;;;;;;6.43;4.50;;;9.70;41.80;;;;;;5057480;28;20041;-69
2021/01/15 11:17:17;;;;;;;6.78;4.20;;;9.70;40.90;;;;;;5056874;28;20028;-67
2021/01/15 11:19:43;;;;;;;5.53;3.85;;;9.70;41.50;;;;;;5057504;28;20112;-69
2021/01/15 11:22:09;;;;;;;6.75;4.40;;;9.50;42.30;;;;;;5057737;28;20070;-67
2021/01/15 11:24:36;;;;;;;4.78;3.67;;;9.60;43.30;;;;;;5057324;28;20287;-67
2021/01/15 11:27:02;;;;;;;7.88;4.57;;;9.60;41.90;;;;;;5057302;28;20045;-69
2021/01/15 11:29:27;;;;;;;5.28;3.67;;;9.70;40.70;;;;;;5057328;28;20050;-67
2021/01/15 11:31:53;;;;;;;5.53;3.90;;;9.80;41.40;;;;;;5057568;28;20025;-67
2021/01/15 11:34:21;;;;;;;5.90;3.47;;;10.00;42.70;;;;;;5057297;28;20083;-67
2021/01/15 11:36:50;;;;;;;5.55;2.83;;;10.10;40.30;;;;;;5057424;28;20029;-67
2021/01/15 11:39:15;;;;;;;4.32;2.97;;;10.10;40.30;;;;;;5057308;28;20044;-67
2021/01/15 11:41:41;;;;;;;5.45;2.63;;;10.20;40.20;;;;;;5057115;28;20044;-67
2021/01/15 11:44:08;;;;;;;4.57;2.83;;;10.00;39.50;;;;;;5057127;28;20025;-67
2021/01/15 11:46:34;;;;;;;5.45;2.72;;;10.00;40.60;;;;;;5057282;28;20340;-67
2021/01/15 11:49:01;;;;;;;5.80;2.65;;;9.90;41.10;;;;;;5056978;28;20037;-69
2021/01/15 11:51:27;;;;;;;6.13;2.45;;;9.50;39.60;;;;;;5057176;28;20033;-67
2021/01/15 11:53:53;;;;;;;5.10;2.60;;;9.20;40.70;;;;;;5056946;28;20303;-69
2021/01/15 11:56:19;;;;;;;4.78;3.03;;;8.90;41.30;;;;;;5056717;28;20032;-67
2021/01/15 11:58:45;;;;;;;4.35;2.80;;;9.30;40.90;;;;;;5056886;28;20428;-69
2021/01/15 12:01:10;;;;;;;6.30;2.90;;;9.40;41.90;;;;;;5056851;28;20024;-67
2021/01/15 12:03:36;;;;;;;4.20;2.78;;;9.50;43.20;;;;;;5056805;28;20087;-69
2021/01/15 12:06:02;;;;;;;3.78;2.45;;;9.50;40.30;;;;;;5056768;28;20052;-69
2021/01/15 12:08:28;;;;;;;4.10;2.55;;;9.40;41.60;;;;;;5056740;28;20052;-69
2021/01/15 12:10:56;;;;;;;3.05;2.33;;;9.50;40.50;;;;;;5056661;28;20025;-67
2021/01/15 12:13:22;;;;;;;3.60;2.60;;;9.90;41.60;;;;;;5056738;28;20104;-67
2021/01/15 12:15:49;;;;;;;3.88;2.80;;;10.10;39.50;;;;;;5056461;28;20321;-67
2021/01/15 12:18:15;;;;;;;3.95;2.65;;;10.20;40.50;;;;;;5056644;28;20017;-68
2021/01/15 12:20:41;;;;;;;6.20;2.47;;;10.20;39.20;;;;;;5056599;28;20048;-68
2021/01/15 12:23:06;;;;;;;7.03;2.50;;;9.90;39.00;;;;;;5056776;28;20028;-67
2021/01/15 12:25:32;;;;;;;4.40;2.55;;;9.60;39.50;;;;;;5056492;28;20029;-67
2021/01/15 12:27:58;;;;;;;3.58;2.30;;;9.50;41.00;;;;;;5057911;28;20124;-67
2021/01/15 12:30:24;;;;;;;3.58;2.60;;;9.30;42.20;;;;;;5060794;28;20059;-69
2021/01/15 12:32:51;;;;;;;4.65;2.47;;;9.30;40.60;;;;;;5060660;28;20033;-67
2021/01/15 12:35:20;;;;;;;3.33;2.20;;;8.90;39.50;;;;;;5060547;28;20021;-68
2021/01/15 12:37:46;;;;;;;3.08;2.17;;;8.70;41.00;;;;;;5060815;28;20056;-68
2021/01/15 12:40:12;;;;;;;3.10;1.90;;;8.70;42.00;;;;;;5060535;28;20051;-68
2021/01/15 12:42:39;;;;;;;2.40;1.70;;;8.70;40.50;;;;;;5060463;28;20027;-68
2021/01/15 12:45:06;;;;;;;3.58;2.25;;;8.60;43.00;;;;;;5060661;28;20412;-67
2021/01/15 12:47:32;;;;;;;3.10;2.20;;;8.50;40.30;;;;;;5060407;28;20029;-67
2021/01/15 12:49:57;;;;;;;3.67;2.10;;;8.50;42.60;;;;;;5060393;28;20078;-68
2021/01/15 12:52:23;;;;;;;3.83;2.40;;;8.50;41.50;;;;;;5060589;28;20028;-67
2021/01/15 12:54:48;;;;;;;3.60;2.38;;;8.30;41.80;;;;;;5060211;28;20344;-68
2021/01/15 12:57:14;;;;;;;3.85;2.40;;;8.30;42.60;;;;;;5060255;28;20367;-67
2021/01/15 12:59:40;;;;;;;3.28;2.17;;;8.20;43.50;;;;;;5060257;28;20021;-67
2021/01/15 13:02:08;;;;;;;4.43;2.53;;;8.10;41.60;;;;;;5060147;28;20056;-67
2021/01/15 13:04:35;;;;;;;3.72;2.22;;;7.90;40.70;;;;;;5060049;28;20021;-67
2021/01/15 13:07:00;;;;;;;5.57;3.17;;;7.60;42.90;;;;;;5060383;28;20086;-67
2021/01/15 13:09:26;;;;;;;3.03;2.03;;;7.20;43.30;;;;;;5060227;28;20028;-67